Terminal Aerodrome Forecast
Issued by NWS

Home | Current Version | Previous Version | Text Only | Print | Product List | Glossary On
Versions: 1 2 3 4 5 6 7 8 9 10 11 12 13 14 15 16 17 18 19 20 21 22 23 24 25 26 27 28 29 30 31 32
602
FTUS45 KSLC 191737
TAFENV
TAF
KENV 191737Z 1918/2018 VRB04KT P6SM VCSH SCT010 BKN050
     FM192200 16005KT P6SM SCT020 BKN050
     FM200300 26005KT P6SM SCT020 BKN060
     FM201500 32005KT P6SM VCSH SCT008 BKN040
      AMD LTD TO CLD VIS AND WIND=

USA.gov is the U.S. government's official web portal to all federal, state and local government web resources and services.